Rhosneigr, United Kingdom
Current Conditions -  °F | °C
As of 5:50 AM on Saturday 01 Nov 2014 (Local Time) from EGOV Reporting Station
Clear Clear  
Wind Chill: 55°   Ceiling: Unl
Heat Index: 55°   Visibility: 6mi
Dew Point: 50°   Wind: 24mph
Humidity: 82%   Direction: 220°SW
Pressure: 29.83"   Gusts: NA
Location:  53.23°N, 4.52°W
Report Text: EGOV 010550Z AUTO 22021KT 9999 NCD 13/10 Q1010
Loading
Personal Weather Stations






























Interactive Weather Map New forecast layout! Learn more

10-Day Weather Forecast

Advertisements
Track Severe Weather on mobile